Time;durP1;ratioP1;P1;durP2;ratioP2;P2;SDS_P1;SDS_P2;PMS_P1;PMS_P2;Temp;Humidity;BMP_temperature;BMP_pressure;BME280_temperature;BME280_humidity;BME280_pressure;Samples;Min_cycle;Max_cycle;Signal;HPM_P1;HPM_P2
2021/07/15 00:00:12;;;;;;;516.75;446.77;;;;;;;;;;4929561;28;20090;-80
2021/07/15 00:02:38;;;;;;;518.38;449.52;;;;;;;;;;4949510;28;20162;-86
2021/07/15 00:05:09;;;;;;;520.72;448.80;;;;;;;;;;4949621;28;20114;-80
2021/07/15 00:07:35;;;;;;;518.42;452.55;;;;;;;;;;4945337;29;20042;-80
2021/07/15 00:10:01;;;;;;;520.97;459.38;;;;;;;;;;4933513;29;20077;-81
2021/07/15 00:12:27;;;;;;;520.75;445.95;;;;;;;;;;4934861;29;20036;-82
2021/07/15 00:14:53;;;;;;;520.53;443.10;;;;;;;;;;4930655;29;20047;-77
2021/07/15 00:17:19;;;;;;;649.28;496.92;;;;;;;;;;4927066;29;20024;-80
2021/07/15 00:19:45;;;;;;;1999.90;999.90;;;;;;;;;;4931784;28;20491;-83
2021/07/15 00:22:11;;;;;;;516.55;444.98;;;;;;;;;;4934376;29;20039;-78
2021/07/15 00:24:37;;;;;;;517.47;449.10;;;;;;;;;;4933356;29;20144;-79
2021/07/15 00:27:03;;;;;;;520.38;447.58;;;;;;;;;;4935063;28;20019;-78
2021/07/15 00:29:29;;;;;;;519.72;443.88;;;;;;;;;;4935151;29;20122;-80
2021/07/15 00:31:55;;;;;;;521.85;453.35;;;;;;;;;;4932272;29;20373;-82
2021/07/15 00:34:21;;;;;;;517.22;450.30;;;;;;;;;;4949625;28;20348;-80
2021/07/15 00:36:47;;;;;;;517.60;447.67;;;;;;;;;;4931674;29;20035;-80
2021/07/15 00:39:13;;;;;;;734.60;465.95;;;;;;;;;;4930485;29;20514;-74
2021/07/15 00:41:39;;;;;;;518.10;448.08;;;;;;;;;;4951407;28;20391;-76
2021/07/15 00:44:05;;;;;;;520.53;450.83;;;;;;;;;;4933274;29;20039;-80
2021/07/15 00:46:31;;;;;;;521.50;446.17;;;;;;;;;;4930388;29;20043;-83
2021/07/15 00:48:57;;;;;;;515.67;444.80;;;;;;;;;;4931449;29;20054;-77
2021/07/15 00:51:24;;;;;;;516.35;447.75;;;;;;;;;;4934479;29;20038;-80
2021/07/15 00:53:50;;;;;;;515.50;442.77;;;;;;;;;;4931309;28;20027;-77
2021/07/15 00:56:16;;;;;;;531.92;448.73;;;;;;;;;;4944737;28;20475;-77
2021/07/15 00:58:42;;;;;;;235.85;209.65;;;;;;;;;;4934539;29;20032;-76
2021/07/15 01:01:09;;;;;;;517.30;448.92;;;;;;;;;;4945984;28;20034;-77
2021/07/15 01:03:35;;;;;;;517.30;449.38;;;;;;;;;;4933232;29;20385;-79
2021/07/15 01:06:01;;;;;;;520.63;453.98;;;;;;;;;;4935057;28;20075;-80
2021/07/15 01:08:27;;;;;;;514.42;444.75;;;;;;;;;;4949781;29;20036;-82
2021/07/15 01:10:53;;;;;;;513.33;437.02;;;;;;;;;;4931050;29;20034;-81
2021/07/15 01:13:42;;;;;;;513.42;439.05;;;;;;;;;;4931787;29;20027;-76
2021/07/15 01:16:27;;;;;;;515.17;439.35;;;;;;;;;;4929540;29;20091;-79
2021/07/15 01:18:53;;;;;;;515.97;443.83;;;;;;;;;;4933959;29;20019;-79
2021/07/15 01:21:19;;;;;;;517.15;445.60;;;;;;;;;;4932782;29;20370;-80
2021/07/15 01:24:03;;;;;;;518.33;449.42;;;;;;;;;;4951295;29;20019;-77
2021/07/15 01:26:53;;;;;;;1162.82;493.15;;;;;;;;;;4931587;28;20039;-79
2021/07/15 01:29:34;;;;;;;1192.00;532.47;;;;;;;;;;4937492;29;20031;-75
2021/07/15 01:32:02;;;;;;;515.65;441.90;;;;;;;;;;4948147;28;20098;-76
2021/07/15 01:34:28;;;;;;;533.85;454.38;;;;;;;;;;4933278;29;20032;-78
2021/07/15 01:36:55;;;;;;;534.47;446.35;;;;;;;;;;4952005;28;20587;-77
2021/07/15 01:39:23;;;;;;;514.85;444.70;;;;;;;;;;4932895;29;20020;-77
2021/07/15 01:41:51;;;;;;;518.40;450.45;;;;;;;;;;4930808;28;20031;-77
2021/07/15 01:44:25;;;;;;;515.50;443.90;;;;;;;;;;4950603;28;20065;-78
2021/07/15 01:46:52;;;;;;;518.60;441.98;;;;;;;;;;4931477;28;20070;-76
2021/07/15 01:49:18;;;;;;;515.67;443.60;;;;;;;;;;4934119;28;20039;-76
2021/07/15 01:51:45;;;;;;;512.92;439.80;;;;;;;;;;4945098;28;20460;-76
2021/07/15 01:54:12;;;;;;;966.97;511.90;;;;;;;;;;4947353;28;20054;-79
2021/07/15 01:56:39;;;;;;;1119.75;397.30;;;;;;;;;;4933903;29;20023;-79
2021/07/15 01:59:10;;;;;;;1749.75;590.22;;;;;;;;;;4937374;29;20040;-78
2021/07/15 02:01:37;;;;;;;515.80;442.45;;;;;;;;;;4948045;28;20094;-78
2021/07/15 02:04:03;;;;;;;526.20;459.55;;;;;;;;;;4934279;29;20063;-78
2021/07/15 02:06:31;;;;;;;511.65;434.33;;;;;;;;;;4934328;29;20439;-78
2021/07/15 02:08:59;;;;;;;513.80;438.75;;;;;;;;;;4934402;29;20797;-74
2021/07/15 02:11:32;;;;;;;515.17;440.13;;;;;;;;;;4943052;28;20040;-75
2021/07/15 02:13:58;;;;;;;514.70;437.25;;;;;;;;;;4932354;29;20067;-81
2021/07/15 02:16:25;;;;;;;515.85;443.88;;;;;;;;;;4926956;28;20044;-77
2021/07/15 02:18:51;;;;;;;516.30;444.77;;;;;;;;;;4927049;29;20035;-77
2021/07/15 02:21:17;;;;;;;1999.90;999.90;;;;;;;;;;4948694;28;20033;-77
2021/07/15 02:23:44;;;;;;;1999.90;999.90;;;;;;;;;;4930925;29;20083;-76
2021/07/15 02:26:11;;;;;;;1999.90;999.90;;;;;;;;;;4933928;29;20082;-79
2021/07/15 02:28:37;;;;;;;1588.25;910.58;;;;;;;;;;4929706;29;20043;-76
2021/07/15 02:31:11;;;;;;;1999.90;999.90;;;;;;;;;;4932353;28;20447;-78
2021/07/15 02:33:39;;;;;;;1999.90;999.90;;;;;;;;;;4943864;28;20034;-77
2021/07/15 02:36:06;;;;;;;1999.90;999.90;;;;;;;;;;4947962;28;20042;-76
2021/07/15 02:38:37;;;;;;;1999.90;999.90;;;;;;;;;;4928757;29;20163;-76
2021/07/15 02:41:04;;;;;;;1999.90;999.90;;;;;;;;;;4944230;28;20106;-76
2021/07/15 02:43:30;;;;;;;1999.90;999.90;;;;;;;;;;4941806;28;20030;-78
2021/07/15 02:45:56;;;;;;;1999.90;999.90;;;;;;;;;;4928039;29;20440;-77
2021/07/15 02:48:24;;;;;;;1999.90;999.90;;;;;;;;;;4931106;29;20025;-81
2021/07/15 02:50:50;;;;;;;1311.20;678.83;;;;;;;;;;4943834;28;20038;-80
2021/07/15 02:53:16;;;;;;;1136.38;644.75;;;;;;;;;;4947048;28;20430;-76
2021/07/15 02:55:53;;;;;;;1999.90;999.90;;;;;;;;;;4932844;29;20027;-77
2021/07/15 02:58:32;;;;;;;1999.90;999.90;;;;;;;;;;4948829;28;20031;-77
2021/07/15 03:01:00;;;;;;;1999.90;999.90;;;;;;;;;;4925426;29;20070;-82
2021/07/15 03:03:36;;;;;;;1999.90;999.90;;;;;;;;;;4932247;29;20027;-76
2021/07/15 03:06:10;;;;;;;1999.90;999.90;;;;;;;;;;4930497;29;20030;-77
2021/07/15 03:08:40;;;;;;;1999.90;999.90;;;;;;;;;;4930811;29;20039;-77
2021/07/15 03:11:07;;;;;;;1999.90;999.90;;;;;;;;;;4928685;29;20031;-75
2021/07/15 03:13:34;;;;;;;1999.90;999.90;;;;;;;;;;4927749;29;20082;-81
2021/07/15 03:16:01;;;;;;;1999.90;999.90;;;;;;;;;;4910111;29;20024;-81
2021/07/15 03:18:28;;;;;;;1999.90;999.90;;;;;;;;;;4914020;29;20039;-76
2021/07/15 03:20:56;;;;;;;1999.90;999.90;;;;;;;;;;4906813;29;20035;-76
2021/07/15 03:23:24;;;;;;;1999.90;999.90;;;;;;;;;;4929289;29;20031;-80
2021/07/15 03:25:52;;;;;;;1999.90;999.90;;;;;;;;;;4928697;29;20036;-79
2021/07/15 03:28:19;;;;;;;1999.90;999.90;;;;;;;;;;4930024;29;20086;-81
2021/07/15 03:30:46;;;;;;;1999.90;999.90;;;;;;;;;;4910139;29;20051;-77
2021/07/15 03:33:13;;;;;;;1999.90;999.90;;;;;;;;;;4918201;29;20036;-77
2021/07/15 03:35:42;;;;;;;1999.90;999.90;;;;;;;;;;4917603;29;20054;-74
2021/07/15 03:38:09;;;;;;;1999.90;999.90;;;;;;;;;;4917644;29;20020;-78
2021/07/15 03:40:39;;;;;;;1999.90;999.90;;;;;;;;;;4929198;29;20165;-77
2021/07/15 03:43:07;;;;;;;1999.90;999.90;;;;;;;;;;4918224;29;20023;-81
2021/07/15 03:45:33;;;;;;;1999.90;999.90;;;;;;;;;;4918582;29;20027;-78
2021/07/15 03:47:59;;;;;;;1999.90;999.90;;;;;;;;;;4919294;29;20493;-78
2021/07/15 03:50:26;;;;;;;512.42;431.30;;;;;;;;;;4930206;29;20503;-78
2021/07/15 03:52:57;;;;;;;513.25;431.50;;;;;;;;;;4937610;29;20043;-77
2021/07/15 03:55:27;;;;;;;510.83;425.42;;;;;;;;;;4921485;29;20024;-79
2021/07/15 03:57:53;;;;;;;511.88;429.17;;;;;;;;;;4929862;29;20646;-75
2021/07/15 04:00:21;;;;;;;511.60;427.80;;;;;;;;;;4935893;29;20052;-80
2021/07/15 04:02:47;;;;;;;513.65;431.33;;;;;;;;;;4914407;29;20028;-75
2021/07/15 04:05:20;;;;;;;513.72;434.75;;;;;;;;;;4925025;29;20027;-78
2021/07/15 04:07:46;;;;;;;511.98;427.75;;;;;;;;;;4920885;29;20070;-79
2021/07/15 04:10:13;;;;;;;513.33;429.13;;;;;;;;;;4925796;29;20552;-76
2021/07/15 04:12:41;;;;;;;510.38;427.45;;;;;;;;;;4933018;29;20071;-78
2021/07/15 04:15:11;;;;;;;508.27;429.05;;;;;;;;;;4934517;29;20451;-78
2021/07/15 04:17:37;;;;;;;;;;;;;;;;;;4940967;29;20034;-77
2021/07/15 04:20:07;;;;;;;508.92;415.58;;;;;;;;;;4943161;29;20358;-76
2021/07/15 04:22:34;;;;;;;510.70;426.60;;;;;;;;;;4937038;29;20079;-77
2021/07/15 04:25:01;;;;;;;511.30;428.63;;;;;;;;;;4956554;29;20036;-79
2021/07/15 04:27:27;;;;;;;511.35;429.42;;;;;;;;;;4932517;29;20435;-75
2021/07/15 04:29:59;;;;;;;512.72;434.83;;;;;;;;;;4952857;29;20030;-75
2021/07/15 04:32:27;;;;;;;511.67;431.15;;;;;;;;;;4935982;29;20027;-77
2021/07/15 04:34:54;;;;;;;510.50;426.85;;;;;;;;;;4951740;29;20484;-79
2021/07/15 04:37:20;;;;;;;519.50;442.75;;;;;;;;;;4956249;29;20031;-80
2021/07/15 04:39:59;;;;;;;515.13;432.98;;;;;;;;;;4940203;28;20163;-79
2021/07/15 04:42:25;;;;;;;627.90;479.38;;;;;;;;;;4930464;29;20058;-79
2021/07/15 04:44:52;;;;;;;513.80;435.95;;;;;;;;;;4939642;29;20063;-77
2021/07/15 04:47:19;;;;;;;515.35;433.67;;;;;;;;;;4934732;29;20020;-74
2021/07/15 04:49:45;;;;;;;514.90;436.83;;;;;;;;;;4955064;28;20031;-80
2021/07/15 04:52:12;;;;;;;515.42;437.10;;;;;;;;;;4953743;29;20148;-78
2021/07/15 04:54:38;;;;;;;514.13;432.55;;;;;;;;;;4949213;29;20036;-84
2021/07/15 04:57:06;;;;;;;515.65;423.60;;;;;;;;;;4933640;29;20054;-79
2021/07/15 04:59:33;;;;;;;521.05;433.33;;;;;;;;;;4930465;29;20527;-78
2021/07/15 05:01:59;;;;;;;508.95;430.95;;;;;;;;;;4946872;28;20024;-79
2021/07/15 05:04:26;;;;;;;514.65;434.17;;;;;;;;;;4932215;29;20066;-76
2021/07/15 05:06:52;;;;;;;507.33;421.42;;;;;;;;;;4932693;29;20062;-80
2021/07/15 05:09:18;;;;;;;508.60;429.80;;;;;;;;;;4933331;29;20035;-78
2021/07/15 05:11:44;;;;;;;507.48;424.70;;;;;;;;;;4946827;28;20024;-77
2021/07/15 05:14:10;;;;;;;508.45;424.55;;;;;;;;;;4923575;29;20484;-78
2021/07/15 05:16:36;;;;;;;511.52;431.63;;;;;;;;;;4911457;29;20038;-77
2021/07/15 05:19:02;;;;;;;508.40;427.38;;;;;;;;;;4914462;29;20184;-77
2021/07/15 05:21:28;;;;;;;510.20;424.45;;;;;;;;;;4912226;29;20024;-76
2021/07/15 05:23:54;;;;;;;511.25;430.77;;;;;;;;;;4909519;29;20423;-77
2021/07/15 05:26:20;;;;;;;512.30;425.48;;;;;;;;;;4928697;29;20055;-77
2021/07/15 05:28:46;;;;;;;515.03;434.17;;;;;;;;;;4915628;29;20043;-78
2021/07/15 05:31:13;;;;;;;517.00;440.35;;;;;;;;;;4910533;29;20031;-78
2021/07/15 05:33:39;;;;;;;515.40;435.10;;;;;;;;;;4913043;29;20519;-78
2021/07/15 05:36:05;;;;;;;512.40;429.83;;;;;;;;;;4930480;29;20079;-77
2021/07/15 05:38:31;;;;;;;512.80;426.38;;;;;;;;;;4915164;29;20090;-79
2021/07/15 05:40:57;;;;;;;515.83;437.38;;;;;;;;;;4934956;29;20122;-82
2021/07/15 05:43:26;;;;;;;511.67;426.85;;;;;;;;;;4936548;29;20020;-77
2021/07/15 05:45:52;;;;;;;514.78;431.42;;;;;;;;;;4935449;29;20028;-78
2021/07/15 05:48:18;;;;;;;511.77;428.73;;;;;;;;;;4919889;29;20051;-73
2021/07/15 05:50:43;;;;;;;510.40;424.35;;;;;;;;;;4937250;29;20106;-78
2021/07/15 05:53:09;;;;;;;510.05;424.02;;;;;;;;;;4936726;29;20027;-76
2021/07/15 05:55:51;;;;;;;512.55;427.77;;;;;;;;;;4919688;29;20637;-75
2021/07/15 05:58:17;;;;;;;511.65;428.13;;;;;;;;;;4932531;29;20023;-75
2021/07/15 06:00:43;;;;;;;514.58;419.40;;;;;;;;;;4919385;29;20032;-76
2021/07/15 06:03:09;;;;;;;704.33;515.28;;;;;;;;;;4918728;29;20027;-79
2021/07/15 06:05:35;;;;;;;510.17;423.73;;;;;;;;;;4929083;29;20043;-77
2021/07/15 06:08:13;;;;;;;512.20;431.10;;;;;;;;;;4918550;29;20048;-75
2021/07/15 06:10:39;;;;;;;527.00;441.48;;;;;;;;;;4913670;29;20114;-77
2021/07/15 06:13:05;;;;;;;559.13;453.88;;;;;;;;;;4934706;29;20115;-75
2021/07/15 06:15:31;;;;;;;510.45;426.10;;;;;;;;;;4941532;28;20119;-76
2021/07/15 06:17:58;;;;;;;513.97;431.75;;;;;;;;;;4955339;29;20423;-74
2021/07/15 06:20:36;;;;;;;513.03;433.42;;;;;;;;;;4954037;29;20031;-77
2021/07/15 06:23:02;;;;;;;512.78;430.85;;;;;;;;;;4932512;29;20039;-76
2021/07/15 06:25:28;;;;;;;597.85;455.00;;;;;;;;;;4953149;29;21484;-75
2021/07/15 06:27:54;;;;;;;522.42;443.40;;;;;;;;;;4946652;28;20122;-74
2021/07/15 06:30:20;;;;;;;519.35;443.88;;;;;;;;;;4930343;28;20027;-76
2021/07/15 06:32:46;;;;;;;511.70;431.92;;;;;;;;;;4938065;29;20032;-75
2021/07/15 06:35:15;;;;;;;565.20;443.92;;;;;;;;;;4953067;29;20035;-77
2021/07/15 06:37:41;;;;;;;511.67;426.65;;;;;;;;;;4948263;29;20031;-76
2021/07/15 06:40:08;;;;;;;511.75;424.15;;;;;;;;;;4934151;29;20024;-74
2021/07/15 06:42:43;;;;;;;512.60;421.92;;;;;;;;;;4930564;29;20122;-74
2021/07/15 06:45:10;;;;;;;699.65;525.20;;;;;;;;;;4932212;29;20028;-79
2021/07/15 06:47:36;;;;;;;511.20;426.80;;;;;;;;;;4953444;29;20419;-78
2021/07/15 06:50:04;;;;;;;570.38;424.92;;;;;;;;;;4930974;28;20061;-79
2021/07/15 06:52:30;;;;;;;515.75;425.13;;;;;;;;;;4930863;29;20073;-77
2021/07/15 06:54:57;;;;;;;1999.90;639.60;;;;;;;;;;4947040;28;20141;-79
2021/07/15 06:57:23;;;;;;;510.45;424.10;;;;;;;;;;4946858;28;20099;-80
2021/07/15 06:59:49;;;;;;;510.70;421.83;;;;;;;;;;4929114;29;20023;-75
2021/07/15 07:02:15;;;;;;;512.30;426.95;;;;;;;;;;4932129;29;20498;-75
2021/07/15 07:04:41;;;;;;;511.35;428.27;;;;;;;;;;4927140;28;20030;-79
2021/07/15 07:07:07;;;;;;;514.20;431.70;;;;;;;;;;4932965;28;20027;-75
2021/07/15 07:09:33;;;;;;;517.28;434.23;;;;;;;;;;4927895;28;20035;-79
2021/07/15 07:11:59;;;;;;;511.92;422.02;;;;;;;;;;4948240;28;20086;-76
2021/07/15 07:14:25;;;;;;;517.33;433.20;;;;;;;;;;4933474;29;20047;-76
2021/07/15 07:16:51;;;;;;;514.85;437.15;;;;;;;;;;4948739;29;20023;-75
2021/07/15 07:19:17;;;;;;;523.40;451.08;;;;;;;;;;4931063;29;20019;-77
2021/07/15 07:21:44;;;;;;;512.83;426.58;;;;;;;;;;4948579;29;20043;-75
2021/07/15 07:24:10;;;;;;;512.38;426.95;;;;;;;;;;4933454;29;20455;-75
2021/07/15 07:26:36;;;;;;;513.50;434.20;;;;;;;;;;4942949;28;20061;-79
2021/07/15 07:29:05;;;;;;;515.40;434.67;;;;;;;;;;4946294;28;20031;-74
2021/07/15 07:31:31;;;;;;;530.72;437.05;;;;;;;;;;4949177;28;20035;-74
2021/07/15 07:34:06;;;;;;;514.28;427.13;;;;;;;;;;4954634;28;20047;-76
2021/07/15 07:36:33;;;;;;;512.08;428.75;;;;;;;;;;4947696;28;20023;-74
2021/07/15 07:38:58;;;;;;;510.27;427.20;;;;;;;;;;4924667;28;20553;-78
2021/07/15 07:41:24;;;;;;;511.63;429.95;;;;;;;;;;4927663;29;20028;-77
2021/07/15 07:43:51;;;;;;;512.70;431.83;;;;;;;;;;4949762;29;20027;-75
2021/07/15 07:46:17;;;;;;;514.13;434.35;;;;;;;;;;4943126;28;20028;-75
2021/07/15 07:48:43;;;;;;;513.13;427.55;;;;;;;;;;4927351;29;20038;-74
2021/07/15 07:51:09;;;;;;;511.23;425.63;;;;;;;;;;4923455;29;20035;-74
2021/07/15 07:53:35;;;;;;;509.92;424.85;;;;;;;;;;4939551;28;20478;-79
2021/07/15 07:56:01;;;;;;;511.98;427.27;;;;;;;;;;4931476;28;20436;-75
2021/07/15 07:58:27;;;;;;;513.80;432.50;;;;;;;;;;4947704;29;20111;-74
2021/07/15 08:00:53;;;;;;;513.30;432.00;;;;;;;;;;4946109;28;20030;-76
2021/07/15 08:03:19;;;;;;;526.58;422.10;;;;;;;;;;4931869;29;20484;-75
2021/07/15 08:05:46;;;;;;;509.70;422.98;;;;;;;;;;4949267;29;20030;-75
2021/07/15 08:08:12;;;;;;;513.63;431.85;;;;;;;;;;4949837;28;20688;-75
2021/07/15 08:10:39;;;;;;;524.20;443.25;;;;;;;;;;4942796;28;20043;-75
2021/07/15 08:13:05;;;;;;;1999.90;999.90;;;;;;;;;;4924727;29;20028;-76
2021/07/15 08:15:31;;;;;;;1999.90;999.90;;;;;;;;;;4929815;28;20047;-74
2021/07/15 08:17:57;;;;;;;1999.90;999.90;;;;;;;;;;4927359;29;20038;-73
2021/07/15 08:20:23;;;;;;;566.28;505.52;;;;;;;;;;4931029;29;20050;-74
2021/07/15 08:22:49;;;;;;;1999.90;999.90;;;;;;;;;;4928659;29;20032;-73
2021/07/15 08:25:19;;;;;;;1999.90;999.90;;;;;;;;;;4929889;28;20058;-73
2021/07/15 08:27:45;;;;;;;1999.90;999.90;;;;;;;;;;4947274;28;20035;-74
2021/07/15 08:30:12;;;;;;;1999.90;999.90;;;;;;;;;;4931647;29;20039;-72
2021/07/15 08:32:38;;;;;;;507.02;417.23;;;;;;;;;;4935765;29;20039;-75
2021/07/15 08:35:08;;;;;;;502.38;409.35;;;;;;;;;;4933805;29;20122;-75
2021/07/15 08:37:34;;;;;;;;;;;;;;;;;;4939383;29;20031;-79
2021/07/15 08:40:00;;;;;;;505.10;404.02;;;;;;;;;;4955730;29;20410;-78
2021/07/15 08:42:27;;;;;;;1999.90;998.30;;;;;;;;;;4939366;29;20090;-84
2021/07/15 08:44:53;;;;;;;525.63;442.75;;;;;;;;;;4937917;29;20023;-80
2021/07/15 08:47:21;;;;;;;532.63;451.92;;;;;;;;;;4929821;29;20078;-79
2021/07/15 08:49:47;;;;;;;528.53;447.20;;;;;;;;;;4936349;29;20483;-75
2021/07/15 08:52:14;;;;;;;543.28;469.38;;;;;;;;;;4940115;29;20020;-79
2021/07/15 08:57:43;;;;;;;509.75;416.23;;;;;;;;;;4954499;29;20035;-81
2021/07/15 09:00:10;;;;;;;509.42;417.52;;;;;;;;;;4939871;29;20055;-84
2021/07/15 09:02:36;;;;;;;1999.90;999.90;;;;;;;;;;4939838;29;20364;-79
2021/07/15 09:05:05;;;;;;;511.30;426.25;;;;;;;;;;4939618;29;20027;-81
2021/07/15 09:07:31;;;;;;;507.85;420.42;;;;;;;;;;4957024;29;20032;-78
2021/07/15 09:10:03;;;;;;;510.88;425.08;;;;;;;;;;4939235;29;20123;-80
2021/07/15 09:12:29;;;;;;;505.73;410.15;;;;;;;;;;4939434;29;20062;-78
2021/07/15 09:14:56;;;;;;;511.42;427.30;;;;;;;;;;4939885;29;20078;-81
2021/07/15 09:17:32;;;;;;;512.10;425.25;;;;;;;;;;4937720;29;20089;-79
2021/07/15 09:19:58;;;;;;;512.38;426.90;;;;;;;;;;4957246;29;20104;-79
2021/07/15 09:22:26;;;;;;;660.03;536.28;;;;;;;;;;4941134;29;20019;-82
2021/07/15 09:24:53;;;;;;;516.25;434.33;;;;;;;;;;4939946;29;20055;-82
2021/07/15 09:27:19;;;;;;;510.10;427.05;;;;;;;;;;4956217;29;20181;-82
2021/07/15 09:29:45;;;;;;;511.73;425.58;;;;;;;;;;4935244;29;20027;-81
2021/07/15 09:32:16;;;;;;;520.80;442.95;;;;;;;;;;4939297;29;20027;-79
2021/07/15 09:35:01;;;;;;;519.88;443.17;;;;;;;;;;4939303;29;20114;-77
2021/07/15 09:37:32;;;;;;;1999.90;999.90;;;;;;;;;;4938861;29;20023;-80
2021/07/15 09:39:58;;;;;;;507.15;421.45;;;;;;;;;;4956925;29;20031;-81
2021/07/15 09:42:25;;;;;;;512.17;427.33;;;;;;;;;;4944801;28;20034;-80
2021/07/15 09:45:16;;;;;;;511.77;428.90;;;;;;;;;;4940672;29;20487;-81
2021/07/15 09:47:47;;;;;;;509.65;422.55;;;;;;;;;;4938051;29;20026;-81
2021/07/15 09:50:25;;;;;;;511.35;427.00;;;;;;;;;;4938693;29;20427;-78
2021/07/15 09:52:52;;;;;;;511.98;430.33;;;;;;;;;;4955566;29;20169;-81
2021/07/15 09:55:33;;;;;;;510.15;423.73;;;;;;;;;;4938232;29;20027;-77
2021/07/15 10:01:07;;;;;;;1999.90;999.90;;;;;;;;;;4951135;29;20436;-77
2021/07/15 10:03:34;;;;;;;1130.53;465.02;;;;;;;;;;4955972;29;21076;-80
2021/07/15 10:12:23;;;;;;;505.85;412.70;;;;;;;;;;4955877;29;20103;-79
2021/07/15 10:14:49;;;;;;;607.67;443.70;;;;;;;;;;4953695;29;20090;-79
2021/07/15 10:17:15;;;;;;;509.50;425.27;;;;;;;;;;4930389;29;20035;-82
2021/07/15 10:19:43;;;;;;;1534.07;602.58;;;;;;;;;;4935661;29;20027;-81
2021/07/15 10:22:15;;;;;;;508.48;423.35;;;;;;;;;;4937964;29;20016;-81
2021/07/15 10:24:41;;;;;;;511.10;431.70;;;;;;;;;;4930812;29;20489;-77
2021/07/15 10:27:11;;;;;;;504.13;418.33;;;;;;;;;;4950450;29;20482;-75
2021/07/15 10:29:37;;;;;;;470.83;396.45;;;;;;;;;;4951590;29;20031;-77
2021/07/15 10:32:04;;;;;;;474.55;402.58;;;;;;;;;;4944028;29;20031;-77
2021/07/15 10:34:32;;;;;;;513.65;432.25;;;;;;;;;;4949502;29;20121;-78
2021/07/15 10:36:58;;;;;;;529.60;452.75;;;;;;;;;;4932495;29;20034;-79
2021/07/15 10:39:27;;;;;;;523.42;448.48;;;;;;;;;;4939642;29;20027;-75
2021/07/15 10:41:56;;;;;;;465.90;413.67;;;;;;;;;;4928193;29;20031;-78
2021/07/15 10:44:22;;;;;;;508.98;424.65;;;;;;;;;;4928982;29;20126;-75
2021/07/15 10:46:51;;;;;;;535.05;466.20;;;;;;;;;;4950453;28;20407;-75
2021/07/15 10:49:17;;;;;;;506.30;442.23;;;;;;;;;;4942862;29;20056;-77
2021/07/15 10:51:45;;;;;;;1999.90;999.90;;;;;;;;;;4924927;29;20031;-78
2021/07/15 10:54:45;;;;;;;1999.90;999.90;;;;;;;;;;4928080;29;20052;-78
2021/07/15 10:57:12;;;;;;;641.13;432.85;;;;;;;;;;4951510;28;20027;-78
2021/07/15 10:59:38;;;;;;;510.67;428.55;;;;;;;;;;4953468;29;20035;-76
2021/07/15 11:02:18;;;;;;;598.25;430.70;;;;;;;;;;4933901;29;20139;-75
2021/07/15 11:04:44;;;;;;;509.65;422.70;;;;;;;;;;4952764;29;20503;-79
2021/07/15 11:07:20;;;;;;;511.70;428.40;;;;;;;;;;4936918;29;20042;-81
2021/07/15 11:09:47;;;;;;;513.90;430.17;;;;;;;;;;4936375;29;20086;-76
2021/07/15 11:12:32;;;;;;;511.10;431.60;;;;;;;;;;4930421;29;20031;-77
2021/07/15 11:15:09;;;;;;;511.83;430.45;;;;;;;;;;4950838;28;20118;-76
2021/07/15 11:17:42;;;;;;;866.90;603.47;;;;;;;;;;4945913;29;20032;-78
2021/07/15 11:20:24;;;;;;;509.38;426.45;;;;;;;;;;4958763;28;20022;-80
2021/07/15 11:23:09;;;;;;;507.75;422.20;;;;;;;;;;4953948;29;20055;-79
2021/07/15 11:25:39;;;;;;;509.45;426.80;;;;;;;;;;4933662;29;20032;-76
2021/07/15 11:28:12;;;;;;;511.63;428.20;;;;;;;;;;4945144;29;20035;-75
2021/07/15 11:30:38;;;;;;;508.40;426.30;;;;;;;;;;4952092;29;20038;-73
2021/07/15 11:33:22;;;;;;;513.25;439.58;;;;;;;;;;4931503;29;20047;-76
2021/07/15 11:36:01;;;;;;;516.53;431.20;;;;;;;;;;4935990;29;20043;-77
2021/07/15 11:38:27;;;;;;;506.95;422.85;;;;;;;;;;4934934;29;20059;-75
2021/07/15 11:40:53;;;;;;;601.80;536.42;;;;;;;;;;4935341;29;20024;-75
2021/07/15 11:43:35;;;;;;;1999.90;999.90;;;;;;;;;;4949058;29;20032;-77
2021/07/15 11:46:01;;;;;;;508.65;427.80;;;;;;;;;;4946079;29;20452;-75
2021/07/15 11:48:44;;;;;;;888.85;795.28;;;;;;;;;;4932562;29;20059;-78
2021/07/15 11:51:39;;;;;;;851.88;762.72;;;;;;;;;;4946054;29;20023;-76
2021/07/15 11:54:14;;;;;;;617.92;551.70;;;;;;;;;;4930654;29;20078;-75
2021/07/15 11:56:42;;;;;;;800.15;494.77;;;;;;;;;;4947486;28;20034;-74
2021/07/15 11:59:08;;;;;;;510.48;434.13;;;;;;;;;;4929328;29;20491;-77
2021/07/15 12:01:34;;;;;;;510.85;432.35;;;;;;;;;;4949753;29;20063;-77
2021/07/15 12:04:19;;;;;;;749.85;468.08;;;;;;;;;;4951349;29;20717;-77
2021/07/15 12:06:45;;;;;;;1015.65;516.72;;;;;;;;;;4942061;28;20034;-77
2021/07/15 12:09:12;;;;;;;504.30;426.30;;;;;;;;;;4950095;28;20095;-77
2021/07/15 12:11:39;;;;;;;502.77;417.15;;;;;;;;;;4931549;29;20035;-79
2021/07/15 12:14:06;;;;;;;551.95;457.98;;;;;;;;;;4929658;28;20071;-78
2021/07/15 12:16:37;;;;;;;509.27;430.83;;;;;;;;;;4929459;29;20550;-79
2021/07/15 12:19:04;;;;;;;509.60;430.15;;;;;;;;;;4949828;28;20059;-77
2021/07/15 12:21:30;;;;;;;511.88;434.63;;;;;;;;;;4946961;28;20424;-75
2021/07/15 12:23:56;;;;;;;510.75;434.13;;;;;;;;;;4929984;29;20835;-77
2021/07/15 12:26:23;;;;;;;513.33;437.73;;;;;;;;;;4946235;28;20085;-74
2021/07/15 12:28:49;;;;;;;510.40;434.42;;;;;;;;;;4948536;29;20450;-80
2021/07/15 12:31:17;;;;;;;513.70;437.05;;;;;;;;;;4930281;29;20031;-76
2021/07/15 12:33:43;;;;;;;520.20;445.60;;;;;;;;;;4947232;29;20538;-74
2021/07/15 12:36:09;;;;;;;519.28;445.35;;;;;;;;;;4936197;29;20031;-75
2021/07/15 12:38:36;;;;;;;510.88;427.02;;;;;;;;;;4939680;29;20023;-74
2021/07/15 12:41:10;;;;;;;513.00;430.50;;;;;;;;;;4939286;29;20665;-74
2021/07/15 12:43:40;;;;;;;511.45;429.48;;;;;;;;;;4935170;29;20068;-73
2021/07/15 12:46:14;;;;;;;510.02;430.27;;;;;;;;;;4932562;29;20031;-73
2021/07/15 12:48:41;;;;;;;511.10;425.45;;;;;;;;;;4953091;29;20450;-74
2021/07/15 12:51:07;;;;;;;509.05;423.42;;;;;;;;;;4949473;29;20120;-73
2021/07/15 12:53:39;;;;;;;510.98;430.98;;;;;;;;;;4932687;29;20027;-74
2021/07/15 12:56:05;;;;;;;512.05;433.27;;;;;;;;;;4955568;28;20055;-74
2021/07/15 12:58:31;;;;;;;514.47;429.73;;;;;;;;;;4931735;29;20492;-74
2021/07/15 13:01:05;;;;;;;512.70;434.23;;;;;;;;;;4945931;28;20046;-74
2021/07/15 13:03:31;;;;;;;509.95;424.98;;;;;;;;;;4942523;29;20031;-74
2021/07/15 13:05:57;;;;;;;507.83;425.52;;;;;;;;;;4937800;29;20031;-73
2021/07/15 13:08:47;;;;;;;509.63;432.50;;;;;;;;;;4933874;29;20063;-74
2021/07/15 13:14:15;;;;;;;511.23;432.48;;;;;;;;;;4952289;29;20142;-78
2021/07/15 13:16:49;;;;;;;508.10;425.08;;;;;;;;;;4954280;28;20027;-76
2021/07/15 13:19:18;;;;;;;509.60;430.10;;;;;;;;;;4955691;29;20467;-74
2021/07/15 13:21:45;;;;;;;507.88;427.50;;;;;;;;;;4938975;29;20027;-73
2021/07/15 13:24:11;;;;;;;507.02;423.90;;;;;;;;;;4949449;29;20058;-74
2021/07/15 13:26:48;;;;;;;505.90;419.85;;;;;;;;;;4938473;29;20050;-76
2021/07/15 13:29:14;;;;;;;1999.90;999.90;;;;;;;;;;4947148;29;20028;-76
2021/07/15 13:31:43;;;;;;;1999.90;999.90;;;;;;;;;;4935567;29;20469;-74
2021/07/15 13:34:09;;;;;;;1999.90;999.90;;;;;;;;;;4956164;29;20034;-74
2021/07/15 13:36:36;;;;;;;1999.90;999.90;;;;;;;;;;4937079;29;20023;-74
2021/07/15 13:39:02;;;;;;;1999.90;999.90;;;;;;;;;;4947658;28;20509;-73
2021/07/15 13:41:30;;;;;;;1999.90;999.90;;;;;;;;;;4931891;29;20151;-75
2021/07/15 13:44:09;;;;;;;1999.90;999.90;;;;;;;;;;4949194;29;20055;-72
2021/07/15 13:46:36;;;;;;;1999.90;999.90;;;;;;;;;;4948033;28;20415;-75
2021/07/15 13:49:03;;;;;;;1999.90;999.90;;;;;;;;;;4952181;28;20023;-76
2021/07/15 13:51:34;;;;;;;1999.90;999.90;;;;;;;;;;4951759;29;20396;-74
2021/07/15 13:54:00;;;;;;;1999.90;999.90;;;;;;;;;;4951602;29;20027;-75
2021/07/15 13:56:28;;;;;;;1999.90;999.90;;;;;;;;;;4930404;29;20023;-74
2021/07/15 13:58:54;;;;;;;1999.90;999.90;;;;;;;;;;4943676;29;20044;-74
2021/07/15 14:01:24;;;;;;;1999.90;999.90;;;;;;;;;;4952726;29;20027;-74
2021/07/15 14:03:55;;;;;;;1999.90;999.90;;;;;;;;;;4937608;29;20399;-74
2021/07/15 14:06:23;;;;;;;1999.90;999.90;;;;;;;;;;4942280;28;20036;-74
2021/07/15 14:09:01;;;;;;;1999.90;999.90;;;;;;;;;;4932598;29;20024;-76
2021/07/15 14:11:29;;;;;;;1999.90;999.90;;;;;;;;;;4932734;29;20708;-75
2021/07/15 14:14:00;;;;;;;1999.90;999.90;;;;;;;;;;4952527;29;20074;-79